Latest Coastal Weather Observations for Troughton Island

IDD60701

Issued at 5:51 am CST Thursday 5 March 2015 (issued every 10 minutes, with the page automatically refreshed every 10 minutes)

About coastal observations | Map of coastal stations | Coastal observations for NT | Marine services | Other Formats
Station Details ID: 001007 Name: TROUGHTON ISLAND Lat: -13.75 Lon: 126.15 Height: 6.0 m
Data from the previous 72 hours. | See also: Recent months at Troughton Island
Date/Time
CST
Temp

°C
Wind Pressure Rain
since 9am
mm
Weather Cloud Vis
km
Sea
Height
m
Swell
Dir
 
Speed
knots
Gust
knots
hPa Trend Height
m
Period
s
Dir
05/05:30am 27.5 S 4 5 1008.1 - 0.0 - - - - - - -
05/05:00am 27.7 S 4 5 1008.2 - 0.0 - - - - - - -
05/04:30am 27.7 S 4 5 1008.1 - 0.0 - - - - - - -
05/04:00am 27.7 SSE 3 4 1008.3 - 0.0 - - - - - - -
05/03:30am 27.8 SSW 3 4 1008.2 - 0.0 - - - - - - -
05/03:00am 27.7 WSW 3 4 1008.0 - 0.0 - - - - - - -
05/02:30am 28.0 S 5 5 1008.1 - 0.0 - - - - - - -
05/02:00am 28.1 S 4 6 1008.5 - 0.0 - - - - - - -
05/01:30am 28.1 S 6 7 1008.6 - 0.0 - - - - - - -
05/01:00am 28.2 S 6 7 1009.0 - 0.0 - - - - - - -
05/12:30am 28.1 S 5 7 1009.5 - 0.0 - - - - - - -
05/12:00am 28.2 SSW 6 7 1009.6 - 0.0 - - - - - - -
 
Date/Time
CST
Temp

°C
Wind Pressure Rain
since 9am
mm
Weather Cloud Vis
km
Sea
Height
m
Swell
Dir
 
Speed
knots
Gust
knots
hPa Trend Height
m
Period
s
Dir
04/11:30pm 28.2 S 6 7 1010.0 - 0.0 - - - - - - -
04/11:00pm 28.3 S 6 7 1009.8 - 0.0 - - - - - - -
04/10:30pm 28.3 SSE 4 5 1009.7 - 0.0 - - - - - - -
04/10:00pm 28.4 S 6 7 1009.8 - 0.0 - - - - - - -
04/09:30pm 28.4 S 6 8 1009.6 - 0.0 - - - - - - -
04/09:00pm 28.4 SW 6 7 1009.2 - 0.0 - - - - - - -
04/08:30pm 28.1 WSW 5 6 1008.6 - 0.0 - - - - - - -
04/08:00pm 28.0 WSW 4 6 1008.2 - 0.0 - - - - - - -
04/07:30pm 28.0 SW 5 7 1007.8 - 0.0 - - - - - - -
04/07:00pm 28.2 SW 8 15 1007.7 - 0.0 - - - - - - -
04/06:30pm 28.4 W 12 15 1007.4 - 0.0 - - - - - - -
04/06:00pm 29.6 W 11 13 1007.0 - 0.0 - - - - - - -
04/05:30pm 30.1 W 10 11 1006.6 - 0.0 - - - - - - -
04/05:00pm 30.8 W 10 13 1006.4 - 0.0 - - - - - - -
04/04:30pm 31.0 W 10 12 1006.3 - 0.0 - - - - - - -
04/04:00pm 31.1 W 10 11 1006.5 - 0.0 - - - - - - -
04/03:30pm 31.1 WNW 10 12 1006.7 - 0.0 - - - - - - -
04/03:00pm 30.8 WNW 10 12 1006.6 - 0.0 - - - - - - -
04/02:30pm 30.8 W 8 10 1007.1 - 0.0 - - - - - - -
04/02:00pm 30.3 W 9 10 1007.5 - 0.0 - - - - - - -
04/01:30pm 30.3 W 8 9 1007.8 - 0.0 - - - - - - -
04/01:00pm 30.4 W 7 8 1008.2 - 0.0 - - - - - - -
04/12:30pm 29.7 WNW 6 9 1008.4 - 0.0 - - - - - - -
04/12:00pm 30.0 WNW 7 8 1008.6 - 0.0 - - - - - - -
04/11:30am 29.7 WNW 6 8 1008.7 - 0.0 - - - - - - -
04/11:00am 29.6 WNW 6 7 1008.8 - 0.0 - - - - - - -
04/10:30am 28.8 WNW 7 8 1008.6 - 0.8 - - - - - - -
04/10:00am 28.2 NW 7 8 1009.0 - 0.8 - - - - - - -
04/09:30am 27.9 NW 9 11 1008.4 - 0.8 - - - - - - -
04/09:00am 27.5 NNW 6 8 1008.3 - 0.8 - - - - - - -
04/08:30am 28.0 CALM 0 0 1007.8 - 0.8 - - - - - - -
04/08:00am 27.5 NNE 3 4 1007.6 - 0.8 - - - - - - -
04/07:30am 27.1 NNE 4 5 1007.2 - 0.8 - - - - - - -
04/07:00am 27.0 NNE 4 5 1007.0 - 0.8 - - - - - - -
04/06:30am 26.9 NE 4 5 1006.5 - 0.8 - - - - - - -
04/06:00am 27.0 NE 3 4 1005.9 - 0.8 - - - - - - -
04/05:30am 26.7 CALM 0 0 1005.6 - 0.8 - - - - - - -
04/05:00am 26.6 NNE 3 4 1005.6 - 0.8 - - - - - - -
04/04:30am 26.3 NE 2 5 1005.6 - 0.8 - - - - - - -
04/04:00am 27.2 NE 6 9 1006.0 - 0.0 - - - - - - -
04/03:30am 27.6 ENE 4 5 1005.9 - 0.0 - - - - - - -
04/03:00am 27.6 NE 4 6 1006.1 - 0.0 - - - - - - -
04/02:30am 27.7 ENE 5 7 1006.4 - 0.0 - - - - - - -
04/02:00am 27.7 ENE 6 8 1006.9 - 0.0 - - - - - - -
04/01:30am 27.6 E 6 7 1006.8 - 0.0 - - - - - - -
04/01:00am 27.7 E 6 7 1007.0 - 0.0 - - - - - - -
04/12:30am 27.8 E 6 7 1007.1 - 0.0 - - - - - - -
04/12:00am 27.4 ESE 3 4 1007.2 - 0.0 - - - - - - -
 
Date/Time
CST
Temp

°C
Wind Pressure Rain
since 9am
mm
Weather Cloud Vis
km
Sea
Height
m
Swell
Dir
 
Speed
knots
Gust
knots
hPa Trend Height
m
Period
s
Dir
03/11:30pm 27.6 ESE 6 8 1007.5 - 0.0 - - - - - - -
03/11:00pm 27.6 E 7 9 1007.4 - 0.0 - - - - - - -
03/10:30pm 27.5 ENE 5 6 1007.2 - 0.0 - - - - - - -
03/10:00pm 27.4 ENE 5 6 1007.1 - 0.0 - - - - - - -
03/09:30pm 27.3 ESE 6 8 1006.6 - 0.0 - - - - - - -
03/09:00pm 27.5 SE 8 10 1006.1 - 0.0 - - - - - - -
03/08:30pm 27.6 E 10 13 1005.8 - 0.0 - - - - - - -
03/08:00pm 27.6 E 9 12 1005.7 - 0.0 - - - - - - -
03/07:30pm 27.6 E 11 14 1005.4 - 0.0 - - - - - - -
03/07:00pm 27.6 ESE 10 11 1005.2 - 0.0 - - - - - - -
03/06:30pm 27.4 SSE 8 10 1004.8 - 0.0 - - - - - - -
03/06:00pm 27.4 SSE 10 14 1004.4 - 0.0 - - - - - - -
03/05:30pm 27.4 SE 11 14 1004.3 - 0.0 - - - - - - -
03/05:00pm 27.5 SE 11 14 1004.5 - 0.0 - - - - - - -
03/04:30pm 27.3 SE 10 13 1004.8 - 0.0 - - - - - - -
03/04:00pm 27.1 ESE 13 16 1005.0 - 0.0 - - - - - - -
03/03:30pm 26.9 ESE 13 16 1005.2 - 0.0 - - - - - - -
03/03:00pm 27.2 SE 14 18 1005.5 - 0.0 - - - - - - -
03/02:30pm 27.5 SSE 16 20 1005.7 - 0.0 - - - - - - -
03/02:00pm 27.8 SSE 18 22 1006.1 - 0.0 - - - - - - -
03/01:30pm 27.3 SSE 15 19 1006.7 - 0.0 - - - - - - -
03/01:00pm 26.5 SSE 14 18 1007.3 - 0.0 - - - - - - -
03/12:30pm 26.3 SSE 14 17 1007.6 - 0.0 - - - - - - -
03/12:00pm 25.9 SE 17 21 1008.2 - 0.0 - - - - - - -
03/11:30am 25.9 SE 19 23 1008.4 - 0.0 - - - - - - -
03/11:00am 26.3 SSE 14 18 1008.3 - 0.0 - - - - - - -
03/10:30am 25.8 SSE 15 22 1008.2 - 19.2 - - - - - - -
03/10:00am 25.5 S 12 15 1008.3 - 19.0 - - - - - - -
03/09:30am 25.4 S 11 14 1008.6 - 18.6 - - - - - - -
03/09:00am 25.0 SSE 12 15 1008.7 - 18.2 - - - - - - -
03/08:30am 24.8 SSE 15 19 1008.5 - 17.8 - - - - - - -
03/08:00am 24.9 ESE 8 11 1008.5 - 16.6 - - - - - - -
03/07:30am 23.9 ENE 6 8 1008.2 - 14.6 - - - - - - -
03/07:00am 25.4 S 8 13 1007.8 - 13.0 - - - - - - -
03/06:30am 25.8 SW 15 19 1006.8 - 12.0 - - - - - - -
03/06:00am 25.9 WSW 10 12 1006.8 - 10.6 - - - - - - -
03/05:30am 25.8 WSW 6 8 1006.1 - 8.8 - - - - - - -
03/05:00am 25.3 S 14 17 1005.4 - 7.6 - - - - - - -
03/04:30am 26.2 SSW 16 18 1005.8 - 6.6 - - - - - - -
03/04:00am 25.9 SW 15 19 1005.1 - 6.2 - - - - - - -
03/03:30am 24.9 S 13 22 1005.0 - 2.6 - - - - - - -
03/03:15am 24.8 SSE 18 28 1005.7 - 0.8 - - - - - - -
03/03:12am 24.9 SE 16 27 1006.0 - 0.6 - - - - - - -
03/03:08am 27.9 S 21 25 1005.6 - 0.0 - - - - - - -
03/03:00am 28.9 SW 20 24 1005.4 - 0.0 - - - - - - -
03/02:30am 29.2 WSW 20 25 1005.1 - 0.0 - - - - - - -
03/02:00am 29.5 WSW 20 23 1005.6 - 0.0 - - - - - - -
03/01:30am 29.5 WSW 20 24 1005.8 - 0.0 - - - - - - -
03/01:00am 29.5 WSW 21 24 1005.9 - 0.0 - - - - - - -
03/12:30am 29.5 WSW 20 23 1006.2 - 0.0 - - - - - - -
03/12:00am 29.5 WSW 19 22 1006.2 - 0.0 - - - - - - -
 
Date/Time
CST
Temp

°C
Wind Pressure Rain
since 9am
mm
Weather Cloud Vis
km
Sea
Height
m
Swell
Dir
 
Speed
knots
Gust
knots
hPa Trend Height
m
Period
s
Dir
02/11:30pm 29.5 WSW 19 22 1006.6 - 0.0 - - - - - - -
02/11:00pm 29.6 WSW 18 21 1006.9 - 0.0 - - - - - - -
02/10:30pm 29.6 WSW 19 22 1006.8 - 0.0 - - - - - - -
02/10:00pm 29.6 WSW 17 21 1006.5 - 0.0 - - - - - - -
02/09:30pm 29.5 WSW 20 23 1006.0 - 0.0 - - - - - - -
02/09:00pm 29.6 W 19 23 1005.6 - 0.0 - - - - - - -
02/08:30pm 29.7 W 19 22 1005.3 - 0.0 - - - - - - -
02/08:00pm 29.6 W 18 21 1004.7 - 0.0 - - - - - - -
02/07:30pm 29.6 W 19 22 1004.3 - 0.0 - - - - - - -
02/07:00pm 29.7 W 18 21 1003.8 - 0.0 - - - - - - -
02/06:30pm 30.2 W 17 20 1003.4 - 0.0 - - - - - - -
02/06:00pm 30.4 WSW 16 19 1003.2 - 0.0 - - - - - - -
02/05:30pm 30.8 W 16 19 1003.4 - 0.0 - - - - - - -
02/05:00pm 31.1 W 15 19 1003.7 - 0.0 - - - - - - -
02/04:30pm 31.6 WSW 16 19 1004.0 - 0.0 - - - - - - -
02/04:00pm 31.7 WSW 16 18 1004.0 - 0.0 - - - - - - -
02/03:30pm 31.8 W 15 18 1004.5 - 0.0 - - - - - - -
02/03:00pm 32.0 WSW 14 16 1004.8 - 0.0 - - - - - - -
02/02:30pm 31.9 W 14 17 1005.2 - 0.0 - - - - - - -
02/02:00pm 31.5 WSW 14 17 1005.9 - 0.0 - - - - - - -
02/01:30pm 31.4 WSW 14 17 1005.9 - 0.0 - - - - - - -
02/01:00pm 31.2 SW 11 13 1006.1 - 0.0 - - - - - - -
02/12:30pm 31.6 SW 11 13 1006.5 - 0.0 - - - - - - -
02/12:00pm 31.2 SW 11 13 1006.8 - 0.0 - - - - - - -
02/11:30am 31.4 SSW 11 14 1007.3 - 0.0 - - - - - - -
02/11:00am 30.9 SW 11 14 1007.6 - 0.0 - - - - - - -
02/10:30am 30.5 SW 13 15 1007.7 - 0.0 - - - - - - -
02/10:00am 30.1 SW 13 16 1007.7 - 0.0 - - - - - - -
02/09:30am 29.8 SW 12 14 1007.8 - 0.0 - - - - - - -
02/09:00am 29.9 WSW 14 16 1007.7 - 0.0 - - - - - - -
02/08:30am 29.6 WSW 13 15 1007.3 - 0.0 - - - - - - -
02/08:00am 29.2 WSW 14 17 1007.2 - 0.0 - - - - - - -
02/07:30am 28.7 WSW 14 16 1006.9 - 0.0 - - - - - - -

Other Formats:

Comma delimited format used in spreadsheet applications
http://www.bom.gov.au/fwo/IDD60701/IDD60701.94102.axf

JavaScript Object Notation format (JSON) in row-major order
http://www.bom.gov.au/fwo/IDD60701/IDD60701.94102.json